createdAt,value
2018-02-27T00:01:13.993Z,98016.34
2018-02-27T00:03:43.236Z,98021.72
2018-02-27T00:06:11.867Z,98001.56
2018-02-27T00:08:40.137Z,98003.13
2018-02-27T00:11:08.416Z,98029.48
2018-02-27T00:13:36.667Z,97999.14
2018-02-27T00:16:05.705Z,98002.17
2018-02-27T00:18:33.966Z,97994.11
2018-02-27T00:21:03.011Z,97997.92
2018-02-27T00:23:31.268Z,97993.81
2018-02-27T00:25:59.546Z,97993.21
2018-02-27T00:28:28.568Z,98010.02
2018-02-27T00:30:56.840Z,97990.58
2018-02-27T00:33:25.877Z,97990.41
2018-02-27T00:35:54.154Z,97984.80
2018-02-27T00:38:22.410Z,97988.95
2018-02-27T00:40:50.687Z,97984.64
2018-02-27T00:43:18.962Z,97979.52
2018-02-27T00:45:47.343Z,97974.54
2018-02-27T00:48:15.609Z,97982.51
2018-02-27T00:50:43.951Z,97980.59
2018-02-27T00:53:12.224Z,97983.98
2018-02-27T00:55:40.491Z,97979.38
2018-02-27T00:58:08.748Z,97976.77
2018-02-27T01:00:37.008Z,97979.50
2018-02-27T01:03:05.284Z,97972.28
2018-02-27T01:05:33.549Z,97975.72
2018-02-27T01:08:01.843Z,97976.90
2018-02-27T01:10:30.140Z,97981.05
2018-02-27T01:12:58.417Z,97976.11
2018-02-27T01:15:26.691Z,97978.52
2018-02-27T01:17:55.740Z,97976.02
2018-02-27T01:20:24.004Z,97970.42
2018-02-27T01:22:52.293Z,97969.55
2018-02-27T01:25:20.565Z,97975.66
2018-02-27T01:27:48.841Z,97972.91
2018-02-27T01:30:17.136Z,97969.42
2018-02-27T01:32:46.242Z,97964.23
2018-02-27T01:35:15.294Z,97960.83
2018-02-27T01:37:43.629Z,97954.86
2018-02-27T01:40:12.706Z,97953.59
2018-02-27T01:42:40.983Z,97956.55
2018-02-27T01:45:09.259Z,97950.58
2018-02-27T01:47:37.545Z,97948.94
2018-02-27T01:50:05.810Z,97946.95
2018-02-27T01:52:34.084Z,97936.20
2018-02-27T01:55:03.112Z,97942.56
2018-02-27T01:57:31.397Z,97941.30
2018-02-27T02:00:00.465Z,97940.19
2018-02-27T02:02:28.745Z,97943.92
2018-02-27T02:04:57.018Z,97938.75
2018-02-27T02:07:25.296Z,97942.12
2018-02-27T02:09:53.567Z,97938.08
2018-02-27T02:12:21.873Z,97933.58
2018-02-27T02:14:50.140Z,97933.70
2018-02-27T02:17:18.409Z,97930.64
2018-02-27T02:19:47.500Z,97938.56
2018-02-27T02:22:15.777Z,97926.59
2018-02-27T02:24:44.089Z,97922.83
2018-02-27T02:27:13.164Z,97922.17
2018-02-27T02:29:41.793Z,97920.79
2018-02-27T02:32:10.837Z,97916.73
2018-02-27T02:34:39.138Z,97913.45
2018-02-27T02:37:07.455Z,97916.66
2018-02-27T02:39:35.740Z,97912.19
2018-02-27T02:42:24.739Z,97910.29
2018-02-27T02:44:53.027Z,97910.14
2018-02-27T02:47:22.819Z,97907.33
2018-02-27T02:49:51.899Z,97902.97
2018-02-27T02:52:20.186Z,97898.33
2018-02-27T02:54:48.461Z,97902.36
2018-02-27T02:57:17.520Z,97903.77
2018-02-27T02:59:45.804Z,97904.70
2018-02-27T03:02:14.089Z,97902.89
2018-02-27T03:04:42.446Z,97898.39
2018-02-27T03:07:10.762Z,97893.70
2018-02-27T03:09:39.040Z,97900.40
2018-02-27T03:12:07.306Z,97900.02
2018-02-27T03:17:07.604Z,97899.20
2018-02-27T03:19:35.897Z,97902.36
2018-02-27T03:22:04.265Z,97898.68
2018-02-27T03:24:32.595Z,97896.86
2018-02-27T03:27:00.884Z,97887.53
2018-02-27T03:29:29.166Z,97886.61
2018-02-27T03:31:57.440Z,97883.21
2018-02-27T03:34:25.726Z,97896.17
2018-02-27T03:36:53.989Z,97886.12
2018-02-27T03:39:23.037Z,97880.71
2018-02-27T03:41:51.311Z,97874.45
2018-02-27T03:44:19.616Z,97878.35
2018-02-27T03:46:47.892Z,97877.72
2018-02-27T03:49:16.185Z,97880.41
2018-02-27T03:51:44.541Z,97873.41
2018-02-27T03:54:13.598Z,97872.64
2018-02-27T03:56:41.929Z,97880.20
2018-02-27T03:59:10.209Z,97877.77
2018-02-27T04:01:38.501Z,97869.13
2018-02-27T04:04:06.760Z,97863.75
2018-02-27T04:06:35.037Z,97866.67
2018-02-27T04:09:03.316Z,97864.48
2018-02-27T04:11:32.408Z,97865.18
2018-02-27T04:14:00.908Z,97862.56
2018-02-27T04:16:29.224Z,97868.84
2018-02-27T04:18:57.498Z,97856.62
2018-02-27T04:21:25.798Z,97861.27
2018-02-27T04:23:54.077Z,97858.47
2018-02-27T04:26:22.355Z,97856.20
2018-02-27T04:28:51.387Z,97850.91
2018-02-27T04:31:19.664Z,97854.56
2018-02-27T04:33:47.965Z,97859.37
2018-02-27T04:36:16.273Z,97861.73
2018-02-27T04:38:44.565Z,97856.89
2018-02-27T04:41:12.894Z,97856.59
2018-02-27T04:43:41.173Z,97859.52
2018-02-27T04:46:09.476Z,97862.11
2018-02-27T04:48:37.797Z,97872.25
2018-02-27T04:51:06.786Z,97862.16
2018-02-27T04:53:35.060Z,97855.38
2018-02-27T04:56:03.371Z,97854.72
2018-02-27T04:58:32.413Z,97852.16
2018-02-27T05:01:00.722Z,97856.14
2018-02-27T05:03:28.986Z,97855.28
2018-02-27T05:05:57.280Z,97854.54
2018-02-27T05:08:25.571Z,97859.94
2018-02-27T05:10:53.846Z,97853.62
2018-02-27T05:13:22.124Z,97853.71
2018-02-27T05:15:50.408Z,97849.91
2018-02-27T05:18:18.677Z,97851.37
2018-02-27T05:20:47.739Z,97858.91
2018-02-27T05:23:16.018Z,97855.94
2018-02-27T05:25:44.320Z,97848.57
2018-02-27T05:28:12.649Z,97835.36
2018-02-27T05:30:40.973Z,97846.64
2018-02-27T05:33:09.240Z,97850.14
2018-02-27T05:35:37.500Z,97850.91
2018-02-27T05:38:06.562Z,97844.72
2018-02-27T05:40:34.888Z,97850.56
2018-02-27T05:43:03.228Z,97852.16
2018-02-27T05:45:32.313Z,97857.48
2018-02-27T05:48:00.665Z,97854.51
2018-02-27T05:50:28.936Z,97853.96
2018-02-27T05:52:57.216Z,97856.84
2018-02-27T05:55:25.488Z,97862.30
2018-02-27T05:57:53.771Z,97856.11
2018-02-27T06:00:22.051Z,97858.55
2018-02-27T06:02:50.349Z,97856.89
2018-02-27T06:05:18.624Z,97856.48
2018-02-27T06:07:47.844Z,97854.51
2018-02-27T06:10:16.907Z,97854.38
2018-02-27T06:12:45.232Z,97859.78
2018-02-27T06:15:14.334Z,97857.76
2018-02-27T06:17:43.572Z,97860.75
2018-02-27T06:20:11.960Z,97860.33
2018-02-27T06:22:40.250Z,97864.88
2018-02-27T06:25:08.528Z,97858.76
2018-02-27T06:27:36.824Z,97857.05
2018-02-27T06:30:05.858Z,97860.48
2018-02-27T06:32:34.141Z,97861.06
2018-02-27T06:35:02.455Z,97862.28
2018-02-27T06:37:31.626Z,97865.80
2018-02-27T06:39:59.926Z,97861.77
2018-02-27T06:42:28.209Z,97863.87
2018-02-27T06:44:56.478Z,97855.50
2018-02-27T06:47:24.778Z,97861.95
2018-02-27T06:49:53.062Z,97854.98
2018-02-27T06:52:21.349Z,97854.09
2018-02-27T06:54:50.379Z,97858.22
2018-02-27T06:57:18.688Z,97858.00
2018-02-27T06:59:47.008Z,97852.44
2018-02-27T07:02:15.297Z,97855.75
2018-02-27T07:04:43.648Z,97854.69
2018-02-27T07:07:11.955Z,97849.05
2018-02-27T07:09:40.241Z,97848.62
2018-02-27T07:12:08.513Z,97857.73
2018-02-27T07:14:36.772Z,97848.36
2018-02-27T07:17:05.070Z,97857.16
2018-02-27T07:19:33.368Z,97851.19
2018-02-27T07:22:01.673Z,97851.80
2018-02-27T07:24:29.951Z,97834.33
2018-02-27T07:26:58.209Z,97851.11
2018-02-27T07:29:27.885Z,97851.72
2018-02-27T07:31:56.153Z,97851.80
2018-02-27T07:34:24.433Z,97845.63
2018-02-27T07:36:52.715Z,97843.80
2018-02-27T07:39:20.988Z,97855.83
2018-02-27T07:41:50.018Z,97848.34
2018-02-27T07:44:18.316Z,97859.20
2018-02-27T07:46:46.599Z,97855.97
2018-02-27T07:49:14.949Z,97851.56
2018-02-27T07:51:43.257Z,97865.03
2018-02-27T07:54:11.589Z,97856.67
2018-02-27T07:56:39.918Z,97853.03
2018-02-27T07:59:09.005Z,97850.27
2018-02-27T08:01:37.287Z,97852.21
2018-02-27T08:04:05.582Z,97857.84
2018-02-27T08:06:33.882Z,97861.84
2018-02-27T08:09:02.164Z,97855.97
2018-02-27T08:11:31.218Z,97854.22
2018-02-27T08:13:59.521Z,97853.70
2018-02-27T08:16:27.802Z,97845.97
2018-02-27T08:18:56.082Z,97852.19
2018-02-27T08:21:25.138Z,97848.12
2018-02-27T08:23:53.432Z,97858.90
2018-02-27T08:26:21.698Z,97855.15
2018-02-27T08:28:49.985Z,97855.41
2018-02-27T08:31:18.270Z,97854.97
2018-02-27T08:33:46.631Z,97859.80
2018-02-27T08:36:14.874Z,97858.97
2018-02-27T08:38:43.192Z,97851.87
2018-02-27T08:41:12.306Z,97858.69
2018-02-27T08:43:41.384Z,97851.72
2018-02-27T08:46:11.434Z,97852.04
2018-02-27T08:48:39.740Z,97855.38
2018-02-27T08:51:08.790Z,97853.52
2018-02-27T08:53:37.063Z,97851.19
2018-02-27T08:56:05.332Z,97862.88
2018-02-27T08:58:34.448Z,97855.62
2018-02-27T09:01:03.503Z,97848.98
2018-02-27T09:03:32.552Z,97850.80
2018-02-27T09:06:01.622Z,97854.86
2018-02-27T09:08:29.908Z,97848.03
2018-02-27T09:10:58.171Z,97842.63
2018-02-27T09:13:26.452Z,97840.98
2018-02-27T09:15:54.720Z,97838.38
2018-02-27T09:18:24.136Z,97838.36
2018-02-27T09:20:54.026Z,97838.91
2018-02-27T09:23:22.336Z,97833.45
2018-02-27T09:25:50.602Z,97833.27
2018-02-27T09:28:18.850Z,97830.86
2018-02-27T09:30:47.924Z,97827.95
2018-02-27T09:33:16.269Z,97826.73
2018-02-27T09:35:44.717Z,97832.80
2018-02-27T09:38:14.586Z,97826.78
2018-02-27T09:40:42.966Z,97824.66
2018-02-27T09:43:11.228Z,97821.58
2018-02-27T09:45:40.305Z,97826.03
2018-02-27T09:48:08.571Z,97825.27
2018-02-27T09:50:36.848Z,97820.49
2018-02-27T09:53:05.109Z,97834.19
2018-02-27T09:55:34.822Z,97830.75
2018-02-27T09:58:03.860Z,97831.84
2018-02-27T10:00:32.150Z,97857.70
2018-02-27T10:03:00.476Z,97830.21
2018-02-27T10:05:28.761Z,97830.36
2018-02-27T10:07:57.051Z,97831.54
2018-02-27T10:10:25.328Z,97844.02
2018-02-27T10:12:53.601Z,97826.50
2018-02-27T10:15:21.916Z,97821.03
2018-02-27T10:17:50.179Z,97826.58
2018-02-27T10:20:18.515Z,97826.95
2018-02-27T10:22:46.836Z,97820.25
2018-02-27T10:25:15.234Z,97823.68
2018-02-27T10:27:44.308Z,97826.13
2018-02-27T10:30:12.722Z,97815.73
2018-02-27T10:32:41.019Z,97836.47
2018-02-27T10:35:09.311Z,97822.50
2018-02-27T10:37:37.584Z,97827.51
2018-02-27T10:40:06.629Z,97832.88
2018-02-27T10:42:34.889Z,97831.09
2018-02-27T10:45:03.932Z,97828.25
2018-02-27T10:47:32.354Z,97825.70
2018-02-27T10:50:01.050Z,97819.84
2018-02-27T10:52:29.349Z,97821.83
2018-02-27T10:54:57.687Z,97816.39
2018-02-27T10:57:25.917Z,97815.31
2018-02-27T10:59:54.196Z,97817.51
2018-02-27T11:02:22.471Z,97812.08
2018-02-27T11:04:50.808Z,97812.33
2018-02-27T11:07:19.089Z,97809.98
2018-02-27T11:09:47.447Z,97809.44
2018-02-27T11:12:15.771Z,97804.28
2018-02-27T11:14:44.149Z,97811.08
2018-02-27T11:17:12.464Z,97799.49
2018-02-27T11:19:40.770Z,97788.80
2018-02-27T11:22:09.812Z,97793.80
2018-02-27T11:24:38.075Z,97789.91
2018-02-27T11:27:06.344Z,97793.13
2018-02-27T11:29:35.376Z,97783.83
2018-02-27T11:32:03.652Z,97781.84
2018-02-27T11:34:32.720Z,97790.12
2018-02-27T11:37:01.008Z,97788.84
2018-02-27T11:39:29.274Z,97782.66
2018-02-27T11:41:57.546Z,97787.48
2018-02-27T11:44:25.802Z,97779.02
2018-02-27T11:46:54.854Z,97784.88
2018-02-27T11:49:23.156Z,97784.66
2018-02-27T11:51:52.173Z,97789.61
2018-02-27T11:54:20.440Z,97784.58
2018-02-27T11:56:48.714Z,97769.33
2018-02-27T11:59:17.032Z,97774.55
2018-02-27T12:01:45.461Z,97772.83
2018-02-27T12:04:14.566Z,97773.16
2018-02-27T12:06:42.922Z,97770.50
2018-02-27T12:09:11.214Z,97766.30
2018-02-27T12:11:39.496Z,97764.67
2018-02-27T12:14:07.789Z,97768.44
2018-02-27T12:16:36.085Z,97764.17
2018-02-27T12:19:04.374Z,97765.67
2018-02-27T12:21:32.657Z,97763.05
2018-02-27T12:24:00.949Z,97760.63
2018-02-27T12:26:29.276Z,97754.50
2018-02-27T12:28:57.493Z,97755.92
2018-02-27T12:31:25.773Z,97747.73
2018-02-27T12:33:54.808Z,97741.91
2018-02-27T12:36:23.089Z,97754.28
2018-02-27T12:38:51.345Z,97741.30
2018-02-27T12:41:20.376Z,97742.42
2018-02-27T12:43:48.632Z,97751.67
2018-02-27T12:46:17.125Z,97740.44
2018-02-27T12:48:45.418Z,97744.27
2018-02-27T12:51:13.744Z,97742.86
2018-02-27T12:53:42.017Z,97743.07
2018-02-27T12:56:10.288Z,97727.33
2018-02-27T12:58:39.345Z,97733.25
2018-02-27T13:01:07.624Z,97738.20
2018-02-27T13:03:35.880Z,97736.58
2018-02-27T13:06:05.655Z,97734.32
2018-02-27T13:08:33.918Z,97736.98
2018-02-27T13:11:02.227Z,97747.05
2018-02-27T13:13:30.539Z,97741.84
2018-02-27T13:15:58.836Z,97741.07
2018-02-27T13:18:27.101Z,97733.94
2018-02-27T13:20:55.393Z,97731.36
2018-02-27T13:23:23.665Z,97737.83
2018-02-27T13:25:51.969Z,97728.55
2018-02-27T13:28:20.327Z,97737.20
2018-02-27T13:30:49.012Z,97732.86
2018-02-27T13:33:18.796Z,97727.28
2018-02-27T13:35:47.088Z,97728.50
2018-02-27T13:38:15.549Z,97722.14
2018-02-27T13:40:44.026Z,97726.22
2018-02-27T13:43:12.841Z,97719.81
2018-02-27T13:45:41.392Z,97721.34
2018-02-27T13:48:09.769Z,97721.97
2018-02-27T13:50:39.267Z,97723.63
2018-02-27T13:53:07.854Z,97727.65
2018-02-27T13:55:36.370Z,97728.30
2018-02-27T13:58:04.704Z,97729.98
2018-02-27T14:00:33.724Z,97721.41
2018-02-27T14:03:02.030Z,97722.35
2018-02-27T14:05:30.418Z,97717.51
2018-02-27T14:07:58.799Z,97721.08
2018-02-27T14:10:27.060Z,97711.54
2018-02-27T14:12:56.112Z,97716.77
2018-02-27T14:15:24.471Z,97719.66
2018-02-27T14:17:53.508Z,97719.66
2018-02-27T14:20:22.110Z,97721.91
2018-02-27T14:22:50.382Z,97714.19
2018-02-27T14:25:18.849Z,97707.61
2018-02-27T14:27:48.236Z,97710.58
2018-02-27T14:30:16.557Z,97710.38
2018-02-27T14:32:45.897Z,97708.20
2018-02-27T14:35:15.117Z,97707.04
2018-02-27T14:37:43.630Z,97697.48
2018-02-27T14:40:12.120Z,97703.98
2018-02-27T14:42:40.416Z,97698.89
2018-02-27T14:45:08.671Z,97697.77
2018-02-27T14:47:36.983Z,97697.72
2018-02-27T14:50:05.242Z,97696.08
2018-02-27T14:52:34.326Z,97695.14
2018-02-27T14:55:03.405Z,97694.22
2018-02-27T14:57:31.684Z,97692.88
2018-02-27T14:59:59.984Z,97694.02
2018-02-27T15:02:29.045Z,97696.14
2018-02-27T15:04:58.068Z,97700.38
2018-02-27T15:07:26.363Z,97699.69
2018-02-27T15:09:54.612Z,97695.36
2018-02-27T15:12:23.660Z,97704.08
2018-02-27T15:14:51.937Z,97707.25
2018-02-27T15:17:20.240Z,97697.98
2018-02-27T15:19:48.504Z,97696.53
2018-02-27T15:22:17.645Z,97690.55
2018-02-27T15:24:45.992Z,97693.30
2018-02-27T15:27:15.087Z,97694.42
2018-02-27T15:29:43.485Z,97696.55
2018-02-27T15:32:12.644Z,97697.92
2018-02-27T15:34:41.009Z,97689.02
2018-02-27T15:37:09.319Z,97684.36
2018-02-27T15:39:37.604Z,97686.55
2018-02-27T15:42:05.884Z,97691.58
2018-02-27T15:44:34.157Z,97691.19
2018-02-27T15:47:03.191Z,97716.44
2018-02-27T15:49:31.469Z,97695.71
2018-02-27T15:51:59.734Z,97690.23
2018-02-27T15:54:28.802Z,97686.95
2018-02-27T15:56:57.087Z,97693.02
2018-02-27T15:59:25.398Z,97697.28
2018-02-27T16:01:53.656Z,97694.67
2018-02-27T16:04:21.968Z,97713.63
2018-02-27T16:06:51.004Z,97708.53
2018-02-27T16:09:20.057Z,97705.66
2018-02-27T16:11:48.332Z,97711.20
2018-02-27T16:14:16.726Z,97702.82
2018-02-27T16:16:45.059Z,97709.23
2018-02-27T16:19:14.212Z,97709.95
2018-02-27T16:21:42.583Z,97710.66
2018-02-27T16:24:12.324Z,97704.47
2018-02-27T16:26:40.623Z,97703.83
2018-02-27T16:29:08.974Z,97715.02
2018-02-27T16:31:38.016Z,97707.54
2018-02-27T16:34:06.298Z,97709.66
2018-02-27T16:36:34.590Z,97709.95
2018-02-27T16:39:02.901Z,97714.19
2018-02-27T16:41:31.177Z,97717.91
2018-02-27T16:43:59.473Z,97722.97
2018-02-27T16:46:27.788Z,97727.20
2018-02-27T16:48:56.087Z,97730.70
2018-02-27T16:51:24.362Z,97733.70
2018-02-27T16:53:52.660Z,97735.88
2018-02-27T16:56:20.960Z,97738.65
2018-02-27T16:58:49.244Z,97741.73
2018-02-27T17:01:17.532Z,97745.33
2018-02-27T17:03:45.876Z,97754.86
2018-02-27T17:06:14.986Z,97750.50
2018-02-27T17:08:43.350Z,97761.66
2018-02-27T17:11:11.645Z,97765.00
2018-02-27T17:13:40.740Z,97763.58
2018-02-27T17:16:09.057Z,97769.98
2018-02-27T17:18:37.342Z,97767.92
2018-02-27T17:21:06.383Z,97781.15
2018-02-27T17:23:34.664Z,97769.55
2018-02-27T17:26:04.110Z,97775.95
2018-02-27T17:28:32.383Z,97787.47
2018-02-27T17:31:00.720Z,97778.97
2018-02-27T17:33:29.821Z,97798.67
2018-02-27T17:35:58.953Z,97776.91
2018-02-27T17:38:27.272Z,97776.97
2018-02-27T17:40:55.548Z,97784.59
2018-02-27T17:43:23.809Z,97772.29
2018-02-27T17:45:52.868Z,97780.11
2018-02-27T17:48:21.136Z,97778.05
2018-02-27T17:50:49.432Z,97772.52
2018-02-27T17:53:17.711Z,97775.72
2018-02-27T17:55:47.758Z,97778.30
2018-02-27T17:58:16.552Z,97772.53
2018-02-27T18:00:44.850Z,97787.88
2018-02-27T18:03:13.801Z,97771.33
2018-02-27T18:05:42.110Z,97767.61
2018-02-27T18:08:11.456Z,97765.78
2018-02-27T18:10:39.735Z,97772.58
2018-02-27T18:13:08.005Z,97774.06
2018-02-27T18:15:37.054Z,97776.23
2018-02-27T18:18:05.328Z,97772.14
2018-02-27T18:20:33.621Z,97771.97
2018-02-27T18:23:02.681Z,97770.53
2018-02-27T18:25:33.565Z,97769.95
2018-02-27T18:28:01.857Z,97772.47
2018-02-27T18:30:32.187Z,97764.04
2018-02-27T18:33:00.561Z,97763.53
2018-02-27T18:35:31.612Z,97767.80
2018-02-27T18:37:59.909Z,97758.52
2018-02-27T18:40:28.972Z,97763.66
2018-02-27T18:42:57.248Z,97761.88
2018-02-27T18:45:25.525Z,97757.25
2018-02-27T18:47:53.757Z,97760.83
2018-02-27T18:50:22.069Z,97759.63
2018-02-27T18:52:51.123Z,97762.19
2018-02-27T18:55:19.393Z,97761.90
2018-02-27T18:57:47.665Z,97757.36
2018-02-27T19:00:15.975Z,97757.86
2018-02-27T19:02:45.044Z,97755.83
2018-02-27T19:05:13.347Z,97756.78
2018-02-27T19:07:41.686Z,97756.62
2018-02-27T19:10:10.024Z,97754.67
2018-02-27T19:12:40.007Z,97756.23
2018-02-27T19:15:08.450Z,97756.14
2018-02-27T19:17:36.982Z,97762.06
2018-02-27T19:20:06.093Z,97752.96
2018-02-27T19:22:34.544Z,97752.97
2018-02-27T19:25:04.617Z,97760.30
2018-02-27T19:27:33.342Z,97755.79
2018-02-27T19:30:01.926Z,97760.37
2018-02-27T19:32:31.029Z,97765.42
2018-02-27T19:34:59.573Z,97765.85
2018-02-27T19:37:28.722Z,97768.69
2018-02-27T19:39:57.138Z,97760.71
2018-02-27T19:42:25.851Z,97765.44
2018-02-27T19:44:54.651Z,97763.48
2018-02-27T19:47:23.133Z,97769.28
2018-02-27T19:49:51.461Z,97758.93
2018-02-27T19:52:20.512Z,97760.09
2018-02-27T19:54:48.930Z,97764.91
2018-02-27T19:57:17.297Z,97760.55
2018-02-27T19:59:45.620Z,97753.81
2018-02-27T20:02:14.795Z,97760.80
2018-02-27T20:04:43.133Z,97764.96
2018-02-27T20:07:12.243Z,97765.45
2018-02-27T20:09:41.391Z,97765.86
2018-02-27T20:12:09.743Z,97762.49
2018-02-27T20:14:38.785Z,97764.30
2018-02-27T20:17:07.169Z,97757.47
2018-02-27T20:19:35.415Z,97756.08
2018-02-27T20:22:03.785Z,97762.27
2018-02-27T20:24:32.146Z,97754.98
2018-02-27T20:27:00.608Z,97769.21
2018-02-27T20:29:30.267Z,97766.91
2018-02-27T20:31:58.573Z,97766.45
2018-02-27T20:34:33.680Z,97770.10
2018-02-27T20:37:01.984Z,97769.95
2018-02-27T20:39:30.446Z,97770.06
2018-02-27T20:41:58.921Z,97771.41
2018-02-27T20:44:27.212Z,97774.28
2018-02-27T20:46:55.502Z,97769.81
2018-02-27T20:49:23.755Z,97772.59
2018-02-27T20:51:52.063Z,97772.53
2018-02-27T20:54:21.104Z,97787.28
2018-02-27T20:56:50.217Z,97784.44
2018-02-27T20:59:19.990Z,97788.04
2018-02-27T21:01:48.467Z,97786.59
2018-02-27T21:04:16.761Z,97788.65
2018-02-27T21:06:45.181Z,97787.82
2018-02-27T21:09:13.626Z,97780.45
2018-02-27T21:11:42.104Z,97783.70
2018-02-27T21:14:11.141Z,97781.33
2018-02-27T21:16:39.431Z,97786.12
2018-02-27T21:19:08.509Z,97784.67
2018-02-27T21:21:37.561Z,97786.14
2018-02-27T21:24:05.844Z,97776.87
2018-02-27T21:26:34.146Z,97774.53
2018-02-27T21:29:02.535Z,97778.80
2018-02-27T21:31:30.801Z,97772.20
2018-02-27T21:33:59.076Z,97774.39
2018-02-27T21:36:28.136Z,97771.77
2018-02-27T21:38:56.474Z,97763.81
2018-02-27T21:41:25.894Z,97777.78
2018-02-27T21:43:54.948Z,97768.98
2018-02-27T21:46:23.248Z,97777.23
2018-02-27T21:48:51.499Z,97775.81
2018-02-27T21:51:19.785Z,97773.86
2018-02-27T21:53:48.100Z,97774.41
2018-02-27T21:56:16.415Z,97775.81
2018-02-27T21:58:45.514Z,97772.87
2018-02-27T22:01:13.840Z,97769.19
2018-02-27T22:03:42.207Z,97771.12
2018-02-27T22:06:10.464Z,97765.06
2018-02-27T22:08:38.775Z,97762.01
2018-02-27T22:11:07.053Z,97764.73
2018-02-27T22:13:35.341Z,97760.18
2018-02-27T22:16:03.665Z,97761.16
2018-02-27T22:18:32.842Z,97771.14
2018-02-27T22:21:01.117Z,97765.84
2018-02-27T22:23:29.405Z,97771.12
2018-02-27T22:25:57.671Z,97771.25
2018-02-27T22:28:25.986Z,97766.61
2018-02-27T22:30:54.258Z,97778.27
2018-02-27T22:33:22.565Z,97775.36
2018-02-27T22:35:50.938Z,97768.57
2018-02-27T22:38:19.224Z,97774.66
2018-02-27T22:40:47.557Z,97771.78
2018-02-27T22:43:15.868Z,97772.30
2018-02-27T22:45:44.964Z,97777.81
2018-02-27T22:48:13.303Z,97768.38
2018-02-27T22:50:41.663Z,97773.25
2018-02-27T22:53:10.730Z,97774.37
2018-02-27T22:55:39.020Z,97763.33
2018-02-27T22:58:07.337Z,97763.54
2018-02-27T23:00:44.504Z,97743.98
2018-02-27T23:03:12.923Z,97751.56
2018-02-27T23:05:42.633Z,97751.73
2018-02-27T23:08:10.963Z,97752.42
2018-02-27T23:10:40.090Z,97751.13
2018-02-27T23:13:08.367Z,97750.49
2018-02-27T23:15:37.426Z,97753.98
2018-02-27T23:18:05.713Z,97756.66
2018-02-27T23:20:34.000Z,97750.77
2018-02-27T23:23:02.326Z,97750.28
2018-02-27T23:25:34.089Z,97752.63
2018-02-27T23:28:03.785Z,97742.06
2018-02-27T23:30:32.195Z,97739.42
2018-02-27T23:33:00.913Z,97742.36
2018-02-27T23:35:29.991Z,97744.13
2018-02-27T23:40:25.329Z,97742.61
2018-02-27T23:42:53.616Z,97736.59
2018-02-27T23:45:21.914Z,97740.93
2018-02-27T23:47:50.177Z,97746.13
2018-02-27T23:50:18.472Z,97748.47
2018-02-27T23:52:46.767Z,97744.52
2018-02-27T23:55:15.109Z,97740.30
2018-02-27T23:57:43.432Z,97740.79
